createdAt,value
2022-08-31T00:01:41.215Z,68.53
2022-08-31T00:03:42.614Z,67.94
2022-08-31T00:05:43.694Z,68.44
2022-08-31T00:07:45.183Z,68.89
2022-08-31T00:09:47.009Z,69.34
2022-08-31T00:11:48.443Z,69.46
2022-08-31T00:13:49.397Z,68.81
2022-08-31T00:15:50.580Z,68.5
2022-08-31T00:17:51.479Z,69.27
2022-08-31T00:19:52.531Z,68.82
2022-08-31T00:21:54.402Z,69.35
2022-08-31T00:23:55.488Z,69.72
2022-08-31T00:25:57.005Z,69.06
2022-08-31T00:27:58.834Z,68.36
2022-08-31T00:30:00.660Z,69.18
2022-08-31T00:32:02.472Z,68.87
2022-08-31T00:34:04.003Z,69.13
2022-08-31T00:36:05.493Z,69
2022-08-31T00:38:06.956Z,68.86
2022-08-31T00:40:08.150Z,69.25
2022-08-31T00:42:09.426Z,69.21
2022-08-31T00:44:10.407Z,69.37
2022-08-31T00:48:13.283Z,69.66
2022-08-31T00:50:14.961Z,68.94
2022-08-31T00:52:16.372Z,68.87
2022-08-31T00:54:18.089Z,69.5
2022-08-31T00:58:20.670Z,69.66
2022-08-31T01:00:22.372Z,68.42
2022-08-31T01:02:24.251Z,68.55
2022-08-31T01:04:25.876Z,69.31
2022-08-31T01:06:27.724Z,69.54
2022-08-31T01:08:30.654Z,69.68
2022-08-31T01:10:31.275Z,70.1
2022-08-31T01:12:32.648Z,69.57
2022-08-31T01:14:34.397Z,69.68
2022-08-31T01:16:35.770Z,69.98
2022-08-31T01:18:37.177Z,69.81
2022-08-31T01:20:38.303Z,70.08
2022-08-31T01:22:39.391Z,70.2
2022-08-31T01:24:40.658Z,69.55
2022-08-31T01:26:41.562Z,69.87
2022-08-31T01:30:44.555Z,69.82
2022-08-31T01:32:46.218Z,70.16
2022-08-31T01:34:47.612Z,70.44
2022-08-31T01:36:48.938Z,70.09
2022-08-31T01:38:51.093Z,70.74
2022-08-31T01:40:51.956Z,70.78
2022-08-31T01:42:53.291Z,70.52
2022-08-31T01:44:54.713Z,70.73
2022-08-31T01:46:56.093Z,71.27
2022-08-31T01:48:57.501Z,71.31
2022-08-31T01:50:58.652Z,71.03
2022-08-31T01:53:00.436Z,71.47
2022-08-31T01:57:02.970Z,71.94
2022-08-31T01:59:08.140Z,71.9
2022-08-31T02:01:10.340Z,72.05
2022-08-31T02:03:06.656Z,71.7
2022-08-31T02:05:07.550Z,71.95
2022-08-31T02:07:08.513Z,72.32
2022-08-31T02:09:09.894Z,71.95
2022-08-31T02:11:11.495Z,72.21
2022-08-31T02:15:14.550Z,72.8
2022-08-31T02:19:16.581Z,72.52
2022-08-31T02:21:18.436Z,73.15
2022-08-31T02:23:19.703Z,73.35
2022-08-31T02:25:20.634Z,72.9
2022-08-31T02:27:21.954Z,72.45
2022-08-31T02:29:23.536Z,72.51
2022-08-31T02:31:25.536Z,72.48
2022-08-31T02:33:27.221Z,72.83
2022-08-31T02:35:28.460Z,72.78
2022-08-31T02:39:31.151Z,73.07
2022-08-31T02:41:32.157Z,73.33
2022-08-31T02:43:33.589Z,73.56
2022-08-31T02:45:34.874Z,73.4
2022-08-31T02:47:36.320Z,73.55
2022-08-31T02:49:37.465Z,73.73
2022-08-31T02:51:38.798Z,73.97
2022-08-31T02:53:40.119Z,74.33
2022-08-31T02:55:41.290Z,74.65
2022-08-31T02:57:42.416Z,74.79
2022-08-31T02:59:44.278Z,75.35
2022-08-31T03:01:45.796Z,75.59
2022-08-31T03:03:47.288Z,75.63
2022-08-31T03:05:48.364Z,75.79
2022-08-31T03:07:49.798Z,75.99
2022-08-31T03:09:51.371Z,76.33
2022-08-31T03:11:52.399Z,76.96
2022-08-31T03:13:57.898Z,77.36
2022-08-31T03:15:55.359Z,76.86
2022-08-31T03:17:56.380Z,77.13
2022-08-31T03:21:58.955Z,77.25
2022-08-31T03:24:00.598Z,77.12
2022-08-31T03:26:02.030Z,77.07
2022-08-31T03:28:03.686Z,77.3
2022-08-31T03:30:05.418Z,77.73
2022-08-31T03:32:06.914Z,77.62
2022-08-31T03:34:07.924Z,77.67
2022-08-31T03:36:09.631Z,77.75
2022-08-31T03:38:10.645Z,77.92
2022-08-31T03:40:11.596Z,78.1
2022-08-31T03:42:13.236Z,78.3
2022-08-31T03:44:14.762Z,78.45
2022-08-31T03:46:15.877Z,78.81
2022-08-31T03:48:17.042Z,78.74
2022-08-31T03:50:18.630Z,78.84
2022-08-31T03:54:21.352Z,78.17
2022-08-31T03:56:22.722Z,78.24
2022-08-31T03:58:24.306Z,78.42
2022-08-31T04:00:25.977Z,77.79
2022-08-31T04:03:10.896Z,77.56
2022-08-31T04:05:12.733Z,77.58
2022-08-31T04:07:14.004Z,77.39
2022-08-31T04:09:14.954Z,77.6
2022-08-31T04:11:16.756Z,78.03
2022-08-31T04:15:19.638Z,78.55
2022-08-31T04:17:21.516Z,78.41
2022-08-31T04:19:22.993Z,78.56
2022-08-31T04:21:23.949Z,78.49
2022-08-31T04:23:25.540Z,78.86
2022-08-31T04:25:26.989Z,78.83
2022-08-31T04:27:27.940Z,78.82
2022-08-31T04:29:29.193Z,78.65
2022-08-31T04:31:30.744Z,78.62
2022-08-31T04:33:32.443Z,78.87
2022-08-31T04:35:34.066Z,79.19
2022-08-31T04:37:35.932Z,79.43
2022-08-31T04:39:49.425Z,79.38
2022-08-31T04:41:38.068Z,79.56
2022-08-31T04:43:39.346Z,79.94
2022-08-31T04:45:40.899Z,79.63
2022-08-31T04:47:42.143Z,79.63
2022-08-31T04:49:43.805Z,79.74
2022-08-31T04:51:45.648Z,79.69
2022-08-31T04:53:47.073Z,79.54
2022-08-31T04:55:48.879Z,79.35
2022-08-31T04:57:49.885Z,79.2
2022-08-31T04:59:51.706Z,79.11
2022-08-31T05:01:53.167Z,79.22
2022-08-31T05:03:54.339Z,79.08
2022-08-31T05:05:55.945Z,79.61
2022-08-31T05:07:57.147Z,79.32
2022-08-31T05:09:58.564Z,79.91
2022-08-31T05:11:59.483Z,79.63
2022-08-31T05:14:00.446Z,79.51
2022-08-31T05:16:01.807Z,80.04
2022-08-31T05:18:02.763Z,80.01
2022-08-31T05:20:04.228Z,79.98
2022-08-31T05:22:05.785Z,79.89
2022-08-31T05:24:07.280Z,79.98
2022-08-31T05:26:09.091Z,80.27
2022-08-31T05:30:11.107Z,80.27
2022-08-31T05:32:12.207Z,81.4
2022-08-31T05:34:13.310Z,80.78
2022-08-31T05:36:14.756Z,81.02
2022-08-31T05:38:15.933Z,80.26
2022-08-31T05:40:17.347Z,80.46
2022-08-31T05:42:19.042Z,81.97
2022-08-31T05:44:20.359Z,80.08
2022-08-31T05:46:22.247Z,80.88
2022-08-31T05:48:23.774Z,82.16
2022-08-31T05:50:25.411Z,80.78
2022-08-31T05:52:26.496Z,81.38
2022-08-31T05:54:27.722Z,81.24
2022-08-31T05:56:28.895Z,81.93
2022-08-31T05:58:29.922Z,80.82
2022-08-31T06:00:31.132Z,80.03
2022-08-31T06:02:32.446Z,80.18
2022-08-31T06:04:33.402Z,82.44
2022-08-31T06:06:34.920Z,82.69
2022-08-31T06:08:36.220Z,82.26
2022-08-31T06:10:37.859Z,80.99
2022-08-31T06:12:39.380Z,80.81
2022-08-31T06:14:42.987Z,81.1
2022-08-31T06:16:42.637Z,81.14
2022-08-31T06:18:43.531Z,80.35
2022-08-31T06:20:45.131Z,81.15
2022-08-31T06:22:46.845Z,81.01
2022-08-31T06:24:48.291Z,80.84
2022-08-31T06:28:51.181Z,79.84
2022-08-31T06:30:55.151Z,79.4
2022-08-31T06:32:57.948Z,79.74
2022-08-31T06:34:55.317Z,78.84
2022-08-31T06:36:56.575Z,79.45
2022-08-31T06:38:57.686Z,78.35
2022-08-31T06:40:59.098Z,77.42
2022-08-31T06:43:00.753Z,78.31
2022-08-31T06:45:02.085Z,76.17
2022-08-31T06:47:03.736Z,76.09
2022-08-31T06:49:04.537Z,75.97
2022-08-31T06:51:06.287Z,75.87
2022-08-31T06:53:08.112Z,75.89
2022-08-31T06:55:09.167Z,75.68
2022-08-31T06:57:10.729Z,75.44
2022-08-31T07:01:13.775Z,74.51
2022-08-31T07:03:15.088Z,74.62
2022-08-31T07:05:19.764Z,74.08
2022-08-31T07:07:17.448Z,74.54
2022-08-31T07:09:18.741Z,74.42
2022-08-31T07:11:20.447Z,74.5
2022-08-31T07:13:21.818Z,74.64
2022-08-31T07:15:23.643Z,74.89
2022-08-31T07:17:24.849Z,74.83
2022-08-31T07:19:26.064Z,75.21
2022-08-31T07:21:27.723Z,75.28
2022-08-31T07:23:29.511Z,73.67
2022-08-31T07:25:30.433Z,75.1
2022-08-31T07:29:33.505Z,74.58
2022-08-31T07:31:34.587Z,72.78
2022-08-31T07:33:35.867Z,74.48
2022-08-31T07:35:37.179Z,72.71
2022-08-31T07:37:38.624Z,73.52
2022-08-31T07:39:39.482Z,72.17
2022-08-31T07:41:41.258Z,72.34
2022-08-31T07:43:42.117Z,72.41
2022-08-31T07:45:43.222Z,73.15
2022-08-31T07:47:43.988Z,71.82
2022-08-31T07:51:46.613Z,71.5
2022-08-31T07:53:48.017Z,71.57
2022-08-31T07:55:49.061Z,70.98
2022-08-31T07:57:50.455Z,72.05
2022-08-31T07:59:51.865Z,70.43
2022-08-31T08:01:53.693Z,70.14
2022-08-31T08:03:54.937Z,68.95
2022-08-31T08:05:56.570Z,70.08
2022-08-31T08:09:59.900Z,69.12
2022-08-31T08:12:02.118Z,70.12
2022-08-31T08:16:03.415Z,70.38
2022-08-31T08:18:05.136Z,69.22
2022-08-31T08:20:09.401Z,69.83
2022-08-31T08:22:07.669Z,69.92
2022-08-31T08:24:09.377Z,68.2
2022-08-31T08:26:14.071Z,69.31
2022-08-31T08:32:17.447Z,66.42
2022-08-31T08:34:16.271Z,66.83
2022-08-31T08:36:17.723Z,67
2022-08-31T08:38:19.304Z,65.81
2022-08-31T08:40:20.244Z,66.46
2022-08-31T08:42:21.830Z,66.8
2022-08-31T08:44:23.192Z,65.16
2022-08-31T08:47:27.006Z,67.09
2022-08-31T08:48:26.441Z,65.19
2022-08-31T08:52:29.267Z,64.43
2022-08-31T08:54:30.834Z,62.58
2022-08-31T08:56:33.124Z,63.73
2022-08-31T08:58:32.891Z,64.32
2022-08-31T09:00:33.952Z,63.99
2022-08-31T09:02:35.010Z,63.39
2022-08-31T09:04:36.427Z,63.21
2022-08-31T09:06:42.951Z,61.85
2022-08-31T09:08:39.394Z,62.88
2022-08-31T09:10:40.920Z,63.74
2022-08-31T09:12:41.967Z,63.36
2022-08-31T09:14:43.756Z,62.93
2022-08-31T09:16:45.534Z,62.79
2022-08-31T09:18:46.368Z,63.55
2022-08-31T09:20:47.842Z,63.19
2022-08-31T09:24:52.187Z,63.03
2022-08-31T09:26:52.633Z,60.68
2022-08-31T09:28:53.757Z,62.9
2022-08-31T09:30:55.527Z,61.28
2022-08-31T09:34:58.001Z,61.29
2022-08-31T09:45:05.370Z,61.38
2022-08-31T09:47:06.185Z,61.52
2022-08-31T09:49:07.383Z,61.5
2022-08-31T09:51:08.894Z,60.77
2022-08-31T09:53:09.775Z,61.13
2022-08-31T09:55:11.133Z,61.57
2022-08-31T09:57:12.131Z,62.71
2022-08-31T09:59:13.613Z,61.18
2022-08-31T10:01:14.512Z,59.85
2022-08-31T10:03:16.141Z,59.71
2022-08-31T10:05:17.996Z,59.38
2022-08-31T10:07:19.183Z,59.21
2022-08-31T10:09:20.603Z,58.16
2022-08-31T10:11:21.860Z,59.13
2022-08-31T10:15:25.250Z,58.13
2022-08-31T10:17:26.448Z,56.83
2022-08-31T10:19:27.958Z,58.85
2022-08-31T10:21:29.017Z,58.52
2022-08-31T10:23:29.756Z,56.6
2022-08-31T10:25:31.291Z,57.01
2022-08-31T10:27:32.649Z,56.22
2022-08-31T10:29:34.457Z,55.16
2022-08-31T10:33:36.468Z,53.95
2022-08-31T10:35:37.776Z,53.91
2022-08-31T10:37:39.235Z,54.66
2022-08-31T10:39:40.454Z,54
2022-08-31T10:41:42.150Z,54.88
2022-08-31T10:43:43.745Z,52.93
2022-08-31T10:45:44.897Z,52.13
2022-08-31T10:48:30.009Z,52.93
2022-08-31T10:50:30.940Z,53.94
2022-08-31T10:52:32.008Z,52.22
2022-08-31T10:54:33.805Z,52.12
2022-08-31T10:56:35.392Z,52.17
2022-08-31T11:00:38.164Z,53.58
2022-08-31T11:02:39.898Z,53.15
2022-08-31T11:04:41.714Z,51.72
2022-08-31T11:06:42.990Z,51.74
2022-08-31T11:10:45.160Z,53.21
2022-08-31T11:12:46.632Z,52.03
2022-08-31T11:14:47.400Z,52.49
2022-08-31T11:16:49.331Z,52.04
2022-08-31T11:18:49.856Z,51.66
2022-08-31T11:20:51.467Z,50.47
2022-08-31T11:22:52.653Z,52.11
2022-08-31T11:24:54.349Z,49.85
2022-08-31T11:26:55.282Z,51.08
2022-08-31T11:28:56.093Z,50.93
2022-08-31T11:30:57.602Z,51.29
2022-08-31T11:32:59.198Z,51.28
2022-08-31T11:35:00.583Z,51.1
2022-08-31T11:37:01.970Z,51.83
2022-08-31T11:39:03.125Z,51.53
2022-08-31T11:41:04.098Z,50.12
2022-08-31T11:43:05.572Z,50.65
2022-08-31T11:45:07.355Z,50.21
2022-08-31T11:47:08.534Z,50.23
2022-08-31T11:49:09.570Z,50.59
2022-08-31T11:51:10.547Z,50.3
2022-08-31T11:53:11.760Z,49.52
2022-08-31T11:55:12.919Z,49.91
2022-08-31T11:59:15.717Z,49.74
2022-08-31T12:01:17.068Z,48.56
2022-08-31T12:03:18.702Z,47.9
2022-08-31T12:05:20.009Z,48.16
2022-08-31T12:09:22.936Z,47.91
2022-08-31T12:11:24.532Z,45.68
2022-08-31T12:13:25.772Z,44.39
2022-08-31T12:15:26.922Z,45.21
2022-08-31T12:17:28.187Z,45.37
2022-08-31T12:19:29.766Z,44.62
2022-08-31T12:21:31.085Z,44.03
2022-08-31T12:23:32.600Z,44.09
2022-08-31T12:25:33.929Z,45.59
2022-08-31T12:27:35.042Z,44.53
2022-08-31T12:29:35.824Z,44.03
2022-08-31T12:31:37.408Z,44.78
2022-08-31T12:33:38.279Z,43.55
2022-08-31T12:35:39.129Z,44.2
2022-08-31T12:37:40.347Z,43.44
2022-08-31T12:39:41.776Z,44.26
2022-08-31T12:41:42.728Z,45.72
2022-08-31T12:43:44.046Z,44.64
2022-08-31T12:45:46.275Z,44.12
2022-08-31T12:47:46.575Z,46.22
2022-08-31T12:49:47.503Z,44.74
2022-08-31T12:51:48.997Z,45.41
2022-08-31T12:53:50.122Z,45.88
2022-08-31T12:55:51.130Z,46.08
2022-08-31T12:57:52.051Z,46.33
2022-08-31T13:00:00.950Z,46.09
2022-08-31T13:01:54.055Z,43.14
2022-08-31T13:03:54.959Z,42.55
2022-08-31T13:07:58.741Z,41.75
2022-08-31T13:09:59.656Z,40.66
2022-08-31T13:12:00.889Z,39.34
2022-08-31T13:14:02.026Z,40.18
2022-08-31T13:16:03.160Z,41.42
2022-08-31T13:18:03.949Z,41.82
2022-08-31T13:22:06.554Z,42.76
2022-08-31T13:24:07.774Z,41.68
2022-08-31T13:26:09.309Z,41.43
2022-08-31T13:28:10.192Z,42.48
2022-08-31T13:30:11.800Z,39.11
2022-08-31T13:32:13.423Z,40.12
2022-08-31T13:34:14.456Z,39.56
2022-08-31T13:38:16.700Z,38.59
2022-08-31T13:40:18.471Z,37.07
2022-08-31T13:42:19.992Z,37.71
2022-08-31T13:44:21.517Z,39.21
2022-08-31T13:46:30.174Z,40.71
2022-08-31T13:50:25.319Z,41.62
2022-08-31T13:52:26.610Z,41.69
2022-08-31T13:54:27.744Z,40.62
2022-08-31T13:56:33.030Z,40.8
2022-08-31T13:58:30.142Z,40.52
2022-08-31T14:00:31.399Z,40.7
2022-08-31T14:02:36.475Z,40.38
2022-08-31T14:04:34.625Z,39.56
2022-08-31T14:06:35.899Z,39.25
2022-08-31T14:08:37.399Z,40.74
2022-08-31T14:10:39.053Z,38.19
2022-08-31T14:12:40.422Z,38.99
2022-08-31T14:14:41.841Z,37.72
2022-08-31T14:16:43.735Z,37.68
2022-08-31T14:18:44.145Z,40.7
2022-08-31T14:21:03.905Z,42.85
2022-08-31T14:22:46.467Z,40.8
2022-08-31T14:24:47.749Z,43.22
2022-08-31T14:26:49.465Z,41.04
2022-08-31T14:28:50.919Z,42.9
2022-08-31T14:32:53.318Z,40.44
2022-08-31T14:34:54.558Z,39.45
2022-08-31T14:36:55.544Z,40.98
2022-08-31T14:38:56.605Z,41.33
2022-08-31T14:40:57.982Z,42.53
2022-08-31T14:42:59.005Z,43.27
2022-08-31T14:44:59.779Z,45.22
2022-08-31T14:47:01.297Z,42.9
2022-08-31T14:49:02.223Z,42.17
2022-08-31T14:51:02.996Z,41.32
2022-08-31T14:53:04.002Z,42.52
2022-08-31T14:55:05.324Z,44.66
2022-08-31T14:57:06.281Z,45.1
2022-08-31T15:01:08.793Z,45.85
2022-08-31T15:03:09.885Z,46.88
2022-08-31T15:05:10.922Z,47.18
2022-08-31T15:07:12.024Z,47.13
2022-08-31T15:09:13.479Z,48.13
2022-08-31T15:11:14.218Z,48.16
2022-08-31T15:13:15.492Z,47.73
2022-08-31T15:15:17.085Z,48.32
2022-08-31T15:17:18.879Z,47.22
2022-08-31T15:19:20.221Z,47.65
2022-08-31T15:21:21.519Z,47.17
2022-08-31T15:23:22.878Z,47.08
2022-08-31T15:25:24.209Z,46.95
2022-08-31T15:27:25.846Z,47.42
2022-08-31T15:31:28.708Z,46.39
2022-08-31T15:33:29.614Z,47.29
2022-08-31T15:35:31.299Z,47.06
2022-08-31T15:37:32.312Z,46.48
2022-08-31T15:39:33.447Z,44.86
2022-08-31T15:41:34.902Z,44.84
2022-08-31T15:43:36.480Z,46.01
2022-08-31T15:45:37.762Z,46.59
2022-08-31T15:47:39.037Z,46.02
2022-08-31T15:49:39.984Z,46.26
2022-08-31T15:51:41.082Z,46.86
2022-08-31T15:53:42.821Z,47.88
2022-08-31T15:55:43.944Z,47.68
2022-08-31T15:57:44.877Z,48.97
2022-08-31T15:59:46.423Z,48.55
2022-08-31T16:03:49.165Z,48.95
2022-08-31T16:05:50.921Z,49.29
2022-08-31T16:07:51.759Z,49.11
2022-08-31T16:09:53.009Z,49.26
2022-08-31T16:13:55.029Z,49.75
2022-08-31T16:15:55.954Z,49.78
2022-08-31T16:17:57.479Z,50.22
2022-08-31T16:19:58.887Z,50.9
2022-08-31T16:22:00.243Z,51.09
2022-08-31T16:24:02.068Z,50.73
2022-08-31T16:26:03.360Z,51.27
2022-08-31T16:28:05.186Z,50.97
2022-08-31T16:30:06.287Z,50.94
2022-08-31T16:32:07.452Z,50.59
2022-08-31T16:34:08.741Z,50.46
2022-08-31T16:36:09.590Z,50.72
2022-08-31T16:38:10.991Z,50.58
2022-08-31T16:40:12.268Z,51.46
2022-08-31T16:42:13.299Z,51.23
2022-08-31T16:44:19.809Z,52.43
2022-08-31T16:46:39.474Z,52.97
2022-08-31T16:48:17.730Z,52.93
2022-08-31T16:50:18.603Z,53.43
2022-08-31T16:52:19.463Z,53.55
2022-08-31T16:54:20.290Z,53.51
2022-08-31T16:56:21.724Z,54
2022-08-31T16:58:40.870Z,53.99
2022-08-31T17:02:25.392Z,54.15
2022-08-31T17:04:50.815Z,54.54
2022-08-31T17:06:28.435Z,54.8
2022-08-31T17:08:29.846Z,54.79
2022-08-31T17:12:32.706Z,54.68
2022-08-31T17:14:34.314Z,54.76
2022-08-31T17:16:35.724Z,55.07
2022-08-31T17:18:36.491Z,55.3
2022-08-31T17:20:37.650Z,55.23
2022-08-31T17:22:38.618Z,55.45
2022-08-31T17:24:39.530Z,56.06
2022-08-31T17:26:41.268Z,55.9
2022-08-31T17:28:43.098Z,56.05
2022-08-31T17:30:44.528Z,56.55
2022-08-31T17:31:45.464Z,56.84
2022-08-31T17:33:47.129Z,57.14
2022-08-31T17:35:48.777Z,57.38
2022-08-31T17:37:50.090Z,57.71
2022-08-31T17:39:50.925Z,57.71
2022-08-31T17:41:52.418Z,58.69
2022-08-31T17:43:54.134Z,58.87
2022-08-31T17:45:55.899Z,58.96
2022-08-31T17:47:57.753Z,59.27
2022-08-31T17:49:58.963Z,59.79
2022-08-31T17:51:59.818Z,60.23
2022-08-31T17:54:01.151Z,60.75
2022-08-31T17:56:02.276Z,60.73
2022-08-31T17:58:03.922Z,60.97
2022-08-31T18:00:04.951Z,61.51
2022-08-31T18:02:06.452Z,61.53
2022-08-31T18:06:09.129Z,61.67
2022-08-31T18:08:10.213Z,62.29
2022-08-31T18:10:11.900Z,62.28
2022-08-31T18:12:13.476Z,62.39
2022-08-31T18:16:16.769Z,62.47
2022-08-31T18:18:17.632Z,62.42
2022-08-31T18:20:18.735Z,63.06
2022-08-31T18:22:20.368Z,62.94
2022-08-31T18:24:21.371Z,63.2
2022-08-31T18:26:22.811Z,63.19
2022-08-31T18:28:24.136Z,62.62
2022-08-31T18:30:25.035Z,62.98
2022-08-31T18:32:26.872Z,63.34
2022-08-31T18:34:28.381Z,62.88
2022-08-31T18:36:29.451Z,63.28
2022-08-31T18:38:30.428Z,63.67
2022-08-31T18:40:31.952Z,63.8
2022-08-31T18:42:33.204Z,63.92
2022-08-31T18:44:34.511Z,64.14
2022-08-31T18:46:35.821Z,64.37
2022-08-31T18:48:37.010Z,64.72
2022-08-31T18:50:38.471Z,65.05
2022-08-31T18:52:40.058Z,65.01
2022-08-31T18:54:41.841Z,65.36
2022-08-31T18:56:43.588Z,64.81
2022-08-31T18:58:45.461Z,65.12
2022-08-31T19:00:46.804Z,65.57
2022-08-31T19:04:48.493Z,66.44
2022-08-31T19:06:49.453Z,66.44
2022-08-31T19:08:50.964Z,66.37
2022-08-31T19:10:52.217Z,66.82
2022-08-31T19:14:54.510Z,67.42
2022-08-31T19:17:01.079Z,67.64
2022-08-31T19:18:56.988Z,68.27
2022-08-31T19:20:57.913Z,68.87
2022-08-31T19:22:59.303Z,69.18
2022-08-31T19:25:00.416Z,69.08
2022-08-31T19:27:01.783Z,69.46
2022-08-31T19:29:02.664Z,69.82
2022-08-31T19:31:04.752Z,70.17
2022-08-31T19:33:05.584Z,70.19
2022-08-31T19:35:07.174Z,70.78
2022-08-31T19:37:08.654Z,71.31
2022-08-31T19:39:10.770Z,71.37
2022-08-31T19:41:11.672Z,71.66
2022-08-31T19:43:44.661Z,72.28
2022-08-31T19:45:25.634Z,72.83
2022-08-31T19:47:24.710Z,72.98
2022-08-31T19:49:16.660Z,73.23
2022-08-31T19:51:18.397Z,73.79
2022-08-31T19:53:21.208Z,74.54
2022-08-31T19:55:21.491Z,74.92
2022-08-31T19:57:22.412Z,75.27
2022-08-31T19:59:23.984Z,75.54
2022-08-31T20:01:25.910Z,76.04
2022-08-31T20:03:27.510Z,76.17
2022-08-31T20:05:29.256Z,76.79
2022-08-31T20:07:30.216Z,77.03
2022-08-31T20:09:31.409Z,76.72
2022-08-31T20:11:33.101Z,76.45
2022-08-31T20:13:34.180Z,75.63
2022-08-31T20:15:35.812Z,75.86
2022-08-31T20:17:37.432Z,75.25
2022-08-31T20:21:40.339Z,74.66
2022-08-31T20:23:41.670Z,75.03
2022-08-31T20:25:42.764Z,74.6
2022-08-31T20:29:45.005Z,75.07
2022-08-31T20:31:47.099Z,74.7
2022-08-31T20:33:47.808Z,74.64
2022-08-31T20:35:49.582Z,74.97
2022-08-31T20:39:52.566Z,74.28
2022-08-31T20:41:53.810Z,73.82
2022-08-31T20:43:55.334Z,73.94
2022-08-31T20:45:57.148Z,73.96
2022-08-31T20:47:58.820Z,73.95
2022-08-31T20:49:59.981Z,73.89
2022-08-31T20:52:01.669Z,73.4
2022-08-31T20:54:03.006Z,73.48
2022-08-31T20:56:03.914Z,73.48
2022-08-31T20:58:05.767Z,73.68
2022-08-31T21:00:07.238Z,73.85
2022-08-31T21:02:08.425Z,74.36
2022-08-31T21:04:09.627Z,74.52
2022-08-31T21:06:11.741Z,74.88
2022-08-31T21:10:14.102Z,74.79
2022-08-31T21:12:17.994Z,75.22
2022-08-31T21:14:16.908Z,75.32
2022-08-31T21:16:17.865Z,75.24
2022-08-31T21:18:19.292Z,75.56
2022-08-31T21:20:20.277Z,75.58
2022-08-31T21:22:21.699Z,75.81
2022-08-31T21:24:23.524Z,76.07
2022-08-31T21:26:24.662Z,75.67
2022-08-31T21:28:26.229Z,75.95
2022-08-31T21:30:27.848Z,75.62
2022-08-31T21:32:28.889Z,75.88
2022-08-31T21:34:30.436Z,75.8
2022-08-31T21:38:33.680Z,75.96
2022-08-31T21:40:34.958Z,76.18
2022-08-31T21:42:36.544Z,76.17
2022-08-31T21:44:37.677Z,76.35
2022-08-31T21:46:38.804Z,76.61
2022-08-31T21:48:40.425Z,77.05
2022-08-31T21:50:41.734Z,77.67
2022-08-31T21:52:42.975Z,77.98
2022-08-31T21:54:43.887Z,78.17
2022-08-31T21:56:45.632Z,78.55
2022-08-31T21:58:47.006Z,79.29
2022-08-31T22:00:48.810Z,79.57
2022-08-31T22:02:50.045Z,79.81
2022-08-31T22:04:51.515Z,80.19
2022-08-31T22:06:53.067Z,80.29
2022-08-31T22:08:54.083Z,80.55
2022-08-31T22:10:55.702Z,80.33
2022-08-31T22:12:56.928Z,80.86
2022-08-31T22:14:58.649Z,81.51
2022-08-31T22:17:00.122Z,81.9
2022-08-31T22:19:02.641Z,82.18
2022-08-31T22:21:03.089Z,82.72
2022-08-31T22:23:04.043Z,82.69
2022-08-31T22:25:05.083Z,82.59
2022-08-31T22:27:06.272Z,82.67
2022-08-31T22:29:07.643Z,82.94
2022-08-31T22:31:08.978Z,83.32
2022-08-31T22:33:10.258Z,83.25
2022-08-31T22:35:11.567Z,83.41
2022-08-31T22:37:13.385Z,83.79
2022-08-31T22:39:14.816Z,84.33
2022-08-31T22:41:15.800Z,84.51
2022-08-31T22:43:17.398Z,84.32
2022-08-31T22:45:18.359Z,84.26
2022-08-31T22:47:20.120Z,84.18
2022-08-31T22:49:21.969Z,84.54
2022-08-31T22:53:25.287Z,85.04
2022-08-31T22:55:26.660Z,85.46
2022-08-31T22:57:28.549Z,85.79
2022-08-31T22:59:29.578Z,85.78
2022-08-31T23:01:31.221Z,86.28
2022-08-31T23:03:32.623Z,87.07
2022-08-31T23:05:34.014Z,87.34
2022-08-31T23:07:35.606Z,87.45
2022-08-31T23:09:37.419Z,87.54
2022-08-31T23:11:38.813Z,87.66
2022-08-31T23:13:39.848Z,87.79
2022-08-31T23:15:41.357Z,88.02
2022-08-31T23:17:42.848Z,88.1
2022-08-31T23:19:44.593Z,88.43
2022-08-31T23:21:45.545Z,88.57
2022-08-31T23:23:47.220Z,88.55
2022-08-31T23:25:48.461Z,88.68
2022-08-31T23:27:49.956Z,88.62
2022-08-31T23:29:51.220Z,88.41
2022-08-31T23:31:52.345Z,88.27
2022-08-31T23:33:53.259Z,88.09
2022-08-31T23:35:54.525Z,88.14
2022-08-31T23:37:56.165Z,88
2022-08-31T23:39:57.419Z,88.17
2022-08-31T23:41:59.054Z,88.63
2022-08-31T23:44:00.173Z,88.58
2022-08-31T23:46:01.481Z,88.16
2022-08-31T23:48:02.638Z,88.24
2022-08-31T23:50:03.634Z,89.08
2022-08-31T23:52:05.095Z,89.52
2022-08-31T23:54:06.453Z,89.78
2022-08-31T23:56:08.344Z,89.69
2022-08-31T23:58:09.323Z,89.54
